Time;durP1;ratioP1;P1;durP2;ratioP2;P2;SDS_P1;SDS_P2;PMS_P1;PMS_P2;Temp;Humidity;BMP_temperature;BMP_pressure;BME280_temperature;BME280_humidity;BME280_pressure;Samples;Min_cycle;Max_cycle;Signal;HPM_P1;HPM_P2
2023/03/14 00:01:31;;;;;;;;;;;;;;;11.41;37.66;99665.75;5368356;32;35515;-73
2023/03/14 00:04:34;;;;;;;;;;;;;;;11.61;37.50;99670.78;5355691;32;35686;-65
2023/03/14 00:07:36;;;;;;;;;;;;;;;12.00;36.49;99651.94;5349201;32;35769;-75
2023/03/14 00:10:38;;;;;;;;;;;;;;;11.47;37.71;99658.37;5355815;32;45137;-73
2023/03/14 00:13:40;;;;;;;;;;;;;;;11.62;37.36;99643.50;5369035;32;36141;-66
2023/03/14 00:16:47;;;;;;;;;;;;;;;12.00;36.66;99645.84;5364688;32;35011;-76
2023/03/14 00:19:52;;;;;;;;;;;;;;;11.27;37.95;99645.41;5345832;32;35630;-65
2023/03/14 00:22:54;;;;;;;;;;;;;;;11.83;36.90;99644.97;5361235;32;35892;-73
2023/03/14 00:26:03;;;;;;;;;;;;;;;11.93;36.56;99632.16;5363252;32;36351;-65
2023/03/14 00:29:04;;;;;;;;;;;;;;;10.98;38.54;99620.69;5369520;32;35819;-64
2023/03/14 00:32:06;;;;;;;;;;;;;;;11.58;37.54;99623.56;5374713;32;35176;-74
2023/03/14 00:35:08;;;;;;;;;;;;;;;11.66;37.35;99621.38;5359179;32;45692;-72
2023/03/14 00:38:10;;;;;;;;;;;;;;;11.23;38.18;99618.44;5362662;32;34798;-75
2023/03/14 00:41:13;;;;;;;;;;;;;;;12.04;36.79;99594.66;5350316;32;36344;-65
2023/03/14 00:44:15;;;;;;;;;;;;;;;11.24;38.09;99604.34;5369901;32;35517;-66
2023/03/14 00:47:17;;;;;;;;;;;;;;;11.61;37.76;99603.19;5365206;32;36179;-66
2023/03/14 00:50:19;;;;;;;;;;;;;;;11.25;38.47;99592.91;5352713;32;34845;-74
2023/03/14 00:53:21;;;;;;;;;;;;;;;11.23;38.64;99601.81;5373974;32;35373;-72
2023/03/14 00:56:23;;;;;;;;;;;;;;;11.41;38.12;99595.56;5356494;32;35366;-66
2023/03/14 00:59:24;;;;;;;;;;;;;;;11.21;38.42;99594.00;5376466;32;35229;-74
2023/03/14 01:02:26;;;;;;;;;;;;;;;11.19;38.82;99589.75;5365342;32;35591;-74
2023/03/14 01:05:28;;;;;;;;;;;;;;;12.36;36.46;99591.00;5337071;32;35647;-74
2023/03/14 01:08:30;;;;;;;;;;;;;;;11.31;38.05;99573.31;5360908;32;36136;-64
2023/03/14 01:11:33;;;;;;;;;;;;;;;11.47;37.78;99560.16;5356839;32;35293;-65
2023/03/14 01:14:35;;;;;;;;;;;;;;;11.31;38.40;99568.88;5381671;32;35768;-74
2023/03/14 01:17:39;;;;;;;;;;;;;;;11.17;38.67;99592.47;5368534;32;36265;-65
2023/03/14 01:20:41;;;;;;;;;;;;;;;11.10;39.02;99575.34;5371880;32;46358;-73
2023/03/14 01:23:43;;;;;;;;;;;;;;;11.05;38.90;99566.84;5376526;32;35854;-64
2023/03/14 01:26:45;;;;;;;;;;;;;;;11.70;37.75;99548.31;5357726;32;35228;-63
2023/03/14 01:29:47;;;;;;;;;;;;;;;11.70;37.63;99549.16;5361502;32;36071;-71
2023/03/14 01:32:49;;;;;;;;;;;;;;;11.47;37.89;99542.59;5368556;32;35249;-73
2023/03/14 01:35:51;;;;;;;;;;;;;;;11.66;37.83;99524.81;5368378;32;35534;-64
2023/03/14 01:38:52;;;;;;;;;;;;;;;11.18;38.40;99523.16;5355194;32;35366;-65
2023/03/14 01:41:54;;;;;;;;;;;;;;;11.62;37.83;99519.81;5365330;32;36044;-68
2023/03/14 01:44:57;;;;;;;;;;;;;;;11.70;37.63;99500.94;5352178;32;35738;-74
2023/03/14 01:47:59;;;;;;;;;;;;;;;10.74;39.59;99528.19;5358416;32;35958;-72
2023/03/14 01:51:01;;;;;;;;;;;;;;;11.04;39.06;99513.41;5364998;32;35963;-71
2023/03/14 01:54:22;;;;;;;;;;;;;;;10.87;39.61;99505.56;5373066;32;35893;-63
2023/03/14 01:57:35;;;;;;;;;;;;;;;11.49;38.51;99489.87;5366392;32;35436;-64
2023/03/14 02:00:37;;;;;;;;;;;;;;;10.66;40.02;99494.44;5343750;32;35166;-63
2023/03/14 02:03:43;;;;;;;;;;;;;;;10.92;39.73;99487.78;5342062;32;46805;-74
2023/03/14 02:06:50;;;;;;;;;;;;;;;10.67;40.22;99493.50;5346001;32;37097;-63
2023/03/14 02:09:52;;;;;;;;;;;;;;;11.19;39.11;99472.25;5357411;32;35517;-75
2023/03/14 02:12:55;;;;;;;;;;;;;;;11.69;38.35;99473.78;5360961;32;35938;-64
2023/03/14 02:15:56;;;;;;;;;;;;;;;11.27;38.83;99463.91;5349856;32;35442;-70
2023/03/14 02:18:58;;;;;;;;;;;;;;;10.87;39.83;99470.56;5370191;32;35588;-65
2023/03/14 02:22:08;;;;;;;;;;;;;;;11.38;38.60;99443.97;5340686;32;37940;-74
2023/03/14 02:25:28;;;;;;;;;;;;;;;11.45;38.83;99454.13;5343691;32;46672;-72
2023/03/14 02:28:30;;;;;;;;;;;;;;;9.99;42.07;99450.69;5368180;32;35548;-65
2023/03/14 02:31:32;;;;;;;;;;;;;;;10.65;40.83;99437.56;5349910;32;35612;-63
2023/03/14 02:34:34;;;;;;;;;;;;;;;10.36;41.48;99436.50;5353051;32;35345;-73
2023/03/14 02:37:38;;;;;;;;;;;;;;;10.33;41.85;99435.81;5352531;32;35462;-63
2023/03/14 02:40:40;;;;;;;;;;;;;;;10.64;41.07;99422.72;5356737;32;45154;-76
2023/03/14 02:43:42;;;;;;;;;;;;;;;10.57;41.18;99392.47;5358393;32;35427;-73
2023/03/14 02:46:44;;;;;;;;;;;;;;;11.35;40.00;99423.09;5344096;32;35872;-63
2023/03/14 02:49:46;;;;;;;;;;;;;;;11.03;40.51;99403.91;5368256;32;35248;-74
2023/03/14 02:52:48;;;;;;;;;;;;;;;10.77;41.35;99410.62;5349934;32;35513;-64
2023/03/14 02:55:50;;;;;;;;;;;;;;;10.41;42.12;99397.69;5371475;32;35458;-64
2023/03/14 02:58:52;;;;;;;;;;;;;;;10.52;42.13;99413.72;5345641;32;35252;-65
2023/03/14 03:01:54;;;;;;;;;;;;;;;11.53;40.06;99400.16;5359269;32;35121;-70
2023/03/14 03:04:56;;;;;;;;;;;;;;;10.74;41.88;99395.00;5358577;32;35931;-63
2023/03/14 03:07:58;;;;;;;;;;;;;;;11.30;40.72;99383.06;5367996;32;35804;-62
2023/03/14 03:10:59;;;;;;;;;;;;;;;11.24;40.87;99387.81;5363760;32;35696;-72
2023/03/14 03:14:01;;;;;;;;;;;;;;;10.83;41.93;99384.00;5358926;32;35493;-74
2023/03/14 03:17:04;;;;;;;;;;;;;;;10.53;42.54;99373.38;5361541;32;36588;-65
2023/03/14 03:20:08;;;;;;;;;;;;;;;10.89;41.74;99379.31;5353591;32;34792;-63
2023/03/14 03:23:10;;;;;;;;;;;;;;;11.86;39.81;99389.44;5361399;32;44184;-73
2023/03/14 03:26:12;;;;;;;;;;;;;;;11.53;40.49;99386.16;5363572;32;35120;-65
2023/03/14 03:29:14;;;;;;;;;;;;;;;10.68;42.27;99391.87;5364515;32;36049;-74
2023/03/14 03:32:16;;;;;;;;;;;;;;;10.47;43.01;99375.50;5372405;32;35498;-74
2023/03/14 03:35:18;;;;;;;;;;;;;;;11.47;40.92;99370.72;5356285;32;36139;-76
2023/03/14 03:38:20;;;;;;;;;;;;;;;11.03;41.63;99368.87;5364472;32;35940;-64
2023/03/14 03:41:22;;;;;;;;;;;;;;;11.65;40.47;99366.97;5350553;32;36077;-73
2023/03/14 03:44:24;;;;;;;;;;;;;;;11.28;41.02;99358.63;5368509;32;37326;-75
2023/03/14 03:47:26;;;;;;;;;;;;;;;10.75;42.48;99370.41;5350883;32;36327;-69
2023/03/14 03:50:27;;;;;;;;;;;;;;;10.88;42.24;99375.81;5351505;32;35276;-73
2023/03/14 03:53:29;;;;;;;;;;;;;;;11.64;40.52;99370.53;5363442;32;37166;-72
2023/03/14 03:56:34;;;;;;;;;;;;;;;11.08;41.81;99370.31;5351450;32;37066;-64
2023/03/14 03:59:38;;;;;;;;;;;;;;;10.72;42.73;99354.81;5379353;32;36130;-64
2023/03/14 04:02:40;;;;;;;;;;;;;;;11.57;40.89;99363.97;5360753;32;47469;-73
2023/03/14 04:05:42;;;;;;;;;;;;;;;11.02;41.87;99372.44;5344107;32;34860;-63
2023/03/14 04:08:44;;;;;;;;;;;;;;;11.23;41.27;99342.28;5384070;32;36133;-74
2023/03/14 04:11:46;;;;;;;;;;;;;;;11.94;39.96;99354.72;5344727;32;35345;-69
2023/03/14 04:14:48;;;;;;;;;;;;;;;11.39;40.86;99352.72;5365411;32;35429;-66
2023/03/14 04:17:50;;;;;;;;;;;;;;;11.65;40.20;99346.75;5369512;32;35197;-74
2023/03/14 04:20:52;;;;;;;;;;;;;;;10.72;42.06;99333.81;5373086;32;35900;-63
2023/03/14 04:23:54;;;;;;;;;;;;;;;11.33;41.22;99317.13;5343787;32;37058;-64
2023/03/14 04:26:57;;;;;;;;;;;;;;;11.31;41.23;99336.56;5347573;32;35440;-71
2023/03/14 04:29:59;;;;;;;;;;;;;;;11.29;41.42;99356.84;5365753;32;35546;-74
2023/03/14 04:33:01;;;;;;;;;;;;;;;10.97;42.01;99356.06;5337063;32;36540;-73
2023/03/14 04:36:03;;;;;;;;;;;;;;;11.16;41.82;99345.34;5371813;32;35608;-73
2023/03/14 04:39:05;;;;;;;;;;;;;;;11.47;41.20;99334.72;5371118;32;34704;-65
2023/03/14 04:42:07;;;;;;;;;;;;;;;11.05;42.00;99340.69;5370596;32;34784;-65
2023/03/14 04:45:09;;;;;;;;;;;;;;;11.19;41.76;99338.09;5347347;32;46378;-73
2023/03/14 04:48:12;;;;;;;;;;;;;;;10.71;42.87;99349.66;5363944;32;34924;-64
2023/03/14 04:51:14;;;;;;;;;;;;;;;11.04;42.36;99354.78;5373803;32;34691;-64
2023/03/14 04:54:16;;;;;;;;;;;;;;;11.00;42.48;99351.47;5338826;32;36020;-65
2023/03/14 04:57:18;;;;;;;;;;;;;;;10.99;42.62;99338.41;5374187;32;36320;-73
2023/03/14 05:00:19;;;;;;;;;;;;;;;11.13;42.47;99357.72;5360098;32;35489;-71
2023/03/14 05:03:21;;;;;;;;;;;;;;;10.06;45.33;99351.47;5351263;32;35525;-66
2023/03/14 05:06:23;;;;;;;;;;;;;;;10.87;43.67;99347.00;5333481;32;36260;-63
2023/03/14 05:09:25;;;;;;;;;;;;;;;10.64;44.28;99341.28;5351273;32;36300;-66
2023/03/14 05:12:27;;;;;;;;;;;;;;;10.17;45.64;99352.56;5353978;32;35609;-64
2023/03/14 05:15:29;;;;;;;;;;;;;;;10.81;44.15;99330.63;5348103;32;35855;-64
2023/03/14 05:18:31;;;;;;;;;;;;;;;11.17;43.54;99332.09;5379250;32;35857;-64
2023/03/14 05:21:33;;;;;;;;;;;;;;;10.81;43.83;99327.16;5344887;32;36117;-63
2023/03/14 05:24:35;;;;;;;;;;;;;;;10.94;43.63;99319.44;5365606;32;35066;-74
2023/03/14 05:27:36;;;;;;;;;;;;;;;11.48;42.30;99317.16;5364860;32;35455;-73
2023/03/14 05:30:38;;;;;;;;;;;;;;;11.05;42.94;99314.41;5357833;32;45439;-64
2023/03/14 05:33:40;;;;;;;;;;;;;;;11.08;43.02;99298.47;5384613;32;35476;-64
2023/03/14 05:36:42;;;;;;;;;;;;;;;11.80;41.17;99302.03;5345484;32;35780;-74
2023/03/14 05:39:44;;;;;;;;;;;;;;;11.54;41.87;99320.25;5367823;32;34933;-74
2023/03/14 05:42:46;;;;;;;;;;;;;;;11.23;42.44;99329.13;5366162;32;35180;-64
2023/03/14 05:45:48;;;;;;;;;;;;;;;11.89;41.07;99309.41;5373191;32;35662;-62
2023/03/14 05:48:50;;;;;;;;;;;;;;;10.80;43.04;99317.59;5351549;32;35357;-72
2023/03/14 05:51:52;;;;;;;;;;;;;;;12.08;40.43;99290.69;5349779;32;35651;-64
2023/03/14 05:54:53;;;;;;;;;;;;;;;12.33;39.34;99316.31;5356200;32;35884;-76
2023/03/14 05:57:55;;;;;;;;;;;;;;;13.05;38.26;99301.94;5337843;32;35501;-66
2023/03/14 06:00:57;;;;;;;;;;;;;;;13.63;36.63;99278.72;5359703;32;35354;-70
2023/03/14 06:03:59;;;;;;;;;;;;;;;14.35;35.51;99287.69;5359364;32;36082;-64
2023/03/14 06:07:01;;;;;;;;;;;;;;;13.88;36.04;99286.63;5357237;32;34783;-74
2023/03/14 06:10:03;;;;;;;;;;;;;;;14.76;34.46;99289.16;5353915;32;35658;-64
2023/03/14 06:13:05;;;;;;;;;;;;;;;15.15;33.09;99296.78;5367094;32;36003;-73
2023/03/14 06:16:07;;;;;;;;;;;;;;;14.36;34.38;99297.28;5357962;32;34810;-74
2023/03/14 06:19:10;;;;;;;;;;;;;;;14.61;34.40;99301.69;5330268;32;45112;-75
2023/03/14 06:22:12;;;;;;;;;;;;;;;14.67;34.19;99295.13;5378312;32;35606;-64
2023/03/14 06:25:14;;;;;;;;;;;;;;;14.47;34.01;99292.13;5363640;32;37807;-64
2023/03/14 06:28:15;;;;;;;;;;;;;;;15.74;32.08;99295.00;5370958;32;35962;-69
2023/03/14 06:31:17;;;;;;;;;;;;;;;16.02;31.21;99293.69;5344689;32;36278;-64
2023/03/14 06:34:19;;;;;;;;;;;;;;;15.22;32.66;99301.59;5362973;32;35100;-73
2023/03/14 06:37:21;;;;;;;;;;;;;;;13.93;34.97;99310.09;5362700;32;34776;-76
2023/03/14 06:40:23;;;;;;;;;;;;;;;14.70;33.75;99302.84;5358633;32;34855;-74
2023/03/14 06:43:25;;;;;;;;;;;;;;;14.00;34.95;99312.19;5375043;32;34725;-74
2023/03/14 06:46:27;;;;;;;;;;;;;;;13.23;36.70;99311.31;5363370;32;34835;-73
2023/03/14 06:49:29;;;;;;;;;;;;;;;13.38;36.44;99319.12;5367125;32;34958;-78
2023/03/14 06:52:31;;;;;;;;;;;;;;;13.06;37.23;99311.56;5361565;32;35195;-64
2023/03/14 06:55:33;;;;;;;;;;;;;;;13.00;37.54;99309.31;5362376;32;36081;-80
2023/03/14 06:58:35;;;;;;;;;;;;;;;12.77;38.33;99321.38;5365959;32;33900;-75
2023/03/14 07:01:37;;;;;;;;;;;;;;;12.96;37.85;99313.13;5355898;32;35091;-74
2023/03/14 07:04:40;;;;;;;;;;;;;;;12.55;38.77;99316.63;5353758;32;44512;-77
2023/03/14 07:07:42;;;;;;;;;;;;;;;11.96;40.18;99315.97;5352341;32;36154;-77
2023/03/14 07:10:44;;;;;;;;;;;;;;;13.24;37.72;99315.63;5372067;32;34904;-64
2023/03/14 07:13:45;;;;;;;;;;;;;;;12.59;38.98;99312.88;5363237;32;36585;-75
2023/03/14 07:16:48;;;;;;;;;;;;;;;13.26;37.92;99303.19;5351426;32;34500;-64
2023/03/14 07:19:49;;;;;;;;;;;;;;;12.91;38.69;99302.88;5376307;32;34081;-74
2023/03/14 07:22:52;;;;;;;;;;;;;;;13.74;37.18;99310.50;5346555;32;34658;-87
2023/03/14 07:25:54;;;;;;;;;;;;;;;13.87;36.68;99307.87;5368825;32;34630;-75
2023/03/14 07:28:58;;;;;;;;;;;;;;;13.46;37.86;99306.25;5346142;32;37985;-84
2023/03/14 07:32:00;;;;;;;;;;;;;;;13.95;36.91;99305.53;5378513;32;34701;-62
2023/03/14 07:35:02;;;;;;;;;;;;;;;13.44;37.82;99306.38;5373972;32;36437;-64
2023/03/14 07:38:04;;;;;;;;;;;;;;;13.53;38.08;99297.00;5354160;32;34536;-75
2023/03/14 07:41:06;;;;;;;;;;;;;;;14.13;37.24;99293.66;5385328;32;34242;-87
2023/03/14 07:44:08;;;;;;;;;;;;;;;14.80;35.80;99283.50;5363245;32;44655;-66
2023/03/14 07:47:10;;;;;;;;;;;;;;;15.07;35.45;99285.06;5375168;32;36017;-64
2023/03/14 07:50:13;;;;;;;;;;;;;;;15.95;34.26;99272.13;5359211;32;34721;-65
2023/03/14 07:53:15;;;;;;;;;;;;;;;16.08;33.75;99266.69;5385387;32;37552;-78
2023/03/14 07:56:17;;;;;;;;;;;;;;;15.36;35.06;99275.78;5358694;32;37257;-83
2023/03/14 07:59:19;;;;;;;;;;;;;;;14.97;35.88;99271.69;5371197;32;34644;-68
2023/03/14 08:02:23;;;;;;;;;;;;;;;14.08;37.72;99264.94;5356671;32;34887;-62
2023/03/14 08:05:25;;;;;;;;;;;;;;;14.08;38.02;99249.06;5347905;32;34807;-62
2023/03/14 08:08:27;;;;;;;;;;;;;;;14.27;37.93;99255.69;5373067;32;34820;-66
2023/03/14 08:11:29;;;;;;;;;;;;;;;14.27;38.39;99256.53;5355330;32;36186;-65
2023/03/14 08:14:32;;;;;;;;;;;;;;;15.19;36.47;99236.50;5366880;32;34718;-73
2023/03/14 08:17:36;;;;;;;;;;;;;;;15.67;35.56;99231.91;5367503;32;33623;-82
2023/03/14 08:20:39;;;;;;;;;;;;;;;15.46;36.02;99233.56;5340293;32;44475;-61
2023/03/14 08:23:45;;;;;;;;;;;;;;;15.49;36.01;99222.72;5365110;32;35558;-74
2023/03/14 08:26:47;;;;;;;;;;;;;;;14.83;37.10;99225.09;5370655;32;35127;-65
2023/03/14 08:29:53;;;;;;;;;;;;;;;14.97;37.18;99232.00;5375416;32;34573;-64
2023/03/14 08:32:56;;;;;;;;;;;;;;;15.38;36.63;99235.94;5367947;32;34342;-69
2023/03/14 08:35:59;;;;;;;;;;;;;;;15.26;36.76;99228.94;5350291;32;35061;-79
2023/03/14 08:39:03;;;;;;;;;;;;;;;15.34;36.87;99214.16;5388046;32;34912;-76
2023/03/14 08:42:05;;;;;;;;;;;;;;;16.32;35.29;99216.16;5363345;32;36340;-81
2023/03/14 08:45:07;;;;;;;;;;;;;;;16.14;35.83;99207.87;5352914;32;34795;-65
2023/03/14 08:48:09;;;;;;;;;;;;;;;16.53;34.96;99209.09;5365840;32;44821;-78
2023/03/14 08:51:13;;;;;;;;;;;;;;;15.87;36.06;99205.66;5369830;32;34777;-76
2023/03/14 08:54:15;;;;;;;;;;;;;;;16.32;35.37;99200.25;5346219;32;36156;-68
2023/03/14 08:57:17;;;;;;;;;;;;;;;16.17;35.72;99191.75;5353800;32;34824;-66
2023/03/14 09:00:20;;;;;;;;;;;;;;;17.07;34.01;99181.62;5361777;32;34742;-66
2023/03/14 09:03:23;;;;;;;;;;;;;;;16.35;34.80;99184.09;5357700;32;35311;-64
2023/03/14 09:06:25;;;;;;;;;;;;;;;16.03;35.34;99176.09;5355772;32;35784;-64
2023/03/14 09:09:27;;;;;;;;;;;;;;;16.21;34.84;99170.16;5358807;32;34599;-66
2023/03/14 09:12:29;;;;;;;;;;;;;;;16.10;35.07;99175.50;5370115;32;34732;-73
2023/03/14 09:15:31;;;;;;;;;;;;;;;16.53;34.08;99171.97;5360920;32;34783;-65
2023/03/14 09:18:33;;;;;;;;;;;;;;;17.12;33.32;99171.44;5366989;32;34671;-67
2023/03/14 09:21:36;;;;;;;;;;;;;;;16.35;34.72;99157.56;5374310;32;36097;-77
2023/03/14 09:24:40;;;;;;;;;;;;;;;16.06;35.54;99165.28;5365531;32;45616;-75
2023/03/14 09:27:43;;;;;;;;;;;;;;;16.46;34.94;99157.53;5370908;32;37545;-68
2023/03/14 09:30:45;;;;;;;;;;;;;;;16.70;34.29;99152.88;5360081;32;36803;-64
2023/03/14 09:33:47;;;;;;;;;;;;;;;16.62;34.42;99128.78;5365525;32;34779;-64
2023/03/14 09:36:49;;;;;;;;;;;;;;;16.99;33.76;99129.16;5346399;32;35378;-64
2023/03/14 09:39:51;;;;;;;;;;;;;;;17.32;33.33;99122.78;5353984;32;34683;-63
2023/03/14 09:42:53;;;;;;;;;;;;;;;17.39;33.30;99109.81;5357159;32;34637;-74
2023/03/14 09:45:55;;;;;;;;;;;;;;;17.90;32.44;99121.28;5331957;32;34327;-66
2023/03/14 09:48:57;;;;;;;;;;;;;;;18.66;31.36;99107.22;5390643;32;35066;-69
2023/03/14 09:52:00;;;;;;;;;;;;;;;19.38;30.23;99094.25;5366395;32;34980;-66
2023/03/14 09:55:06;;;;;;;;;;;;;;;21.22;27.92;99079.44;5354475;32;34682;-74
2023/03/14 09:58:16;;;;;;;;;;;;;;;22.90;25.54;99064.88;5351900;32;34740;-63
2023/03/14 10:01:19;;;;;;;;;;;;;;;22.12;26.32;99073.41;5356521;32;36869;-66
2023/03/14 10:04:22;;;;;;;;;;;;;;;23.23;24.86;99059.41;5335547;32;34574;-67
2023/03/14 10:07:28;;;;;;;;;;;;;;;23.08;25.29;99061.16;5340833;32;34358;-64
2023/03/14 10:10:33;;;;;;;;;;;;;;;24.17;23.72;99033.44;5366617;32;34190;-68
2023/03/14 10:13:35;;;;;;;;;;;;;;;24.54;23.29;99033.50;5336653;32;35697;-72
2023/03/14 10:16:40;;;;;;;;;;;;;;;25.39;22.20;99022.31;5362048;32;34783;-66
2023/03/14 10:19:53;;;;;;;;;;;;;;;25.52;22.02;99020.81;5370222;32;44553;-79
2023/03/14 10:22:55;;;;;;;;;;;;;;;24.57;23.28;99018.84;5358738;32;34690;-63
2023/03/14 10:26:14;;;;;;;;;;;;;;;26.34;21.36;99007.81;5377876;32;34686;-67
2023/03/14 10:29:18;;;;;;;;;;;;;;;26.14;21.62;99006.78;5323368;32;38710;-84
2023/03/14 10:32:20;;;;;;;;;;;;;;;27.00;20.39;98989.41;5345187;32;34802;-78
2023/03/14 10:35:23;;;;;;;;;;;;;;;24.54;22.74;98997.75;5352293;32;34778;-73
2023/03/14 10:38:26;;;;;;;;;;;;;;;23.05;24.22;99021.28;5361531;32;36210;-69
2023/03/14 10:41:30;;;;;;;;;;;;;;;22.13;25.50;99004.69;5369493;32;36103;-73
2023/03/14 10:44:33;;;;;;;;;;;;;;;21.55;26.29;99011.75;5356376;32;34530;-68
2023/03/14 10:47:38;;;;;;;;;;;;;;;21.46;26.52;99009.25;5384255;32;34611;-74
2023/03/14 10:50:53;;;;;;;;;;;;;;;21.36;26.78;99002.19;5333790;32;43770;-64
2023/03/14 10:53:56;;;;;;;;;;;;;;;22.49;25.42;98975.72;5352051;32;34887;-65
2023/03/14 10:57:00;;;;;;;;;;;;;;;21.97;26.08;98988.63;5385576;32;34853;-75
2023/03/14 11:00:08;;;;;;;;;;;;;;;22.91;24.80;98979.97;5357832;32;34691;-66
2023/03/14 11:03:10;;;;;;;;;;;;;;;23.95;23.50;98973.38;5374907;32;44872;-72
2023/03/14 11:06:14;;;;;;;;;;;;;;;23.67;23.60;98973.94;5321262;32;36026;-67
2023/03/14 11:09:16;;;;;;;;;;;;;;;23.24;24.10;98962.75;5368189;32;36791;-65
2023/03/14 11:12:28;;;;;;;;;;;;;;;23.32;24.03;98961.06;5356696;32;35074;-68
2023/03/14 11:15:44;;;;;;;;;;;;;;;22.84;24.67;98942.31;5355404;32;34910;-72
2023/03/14 11:19:05;;;;;;;;;;;;;;;22.02;25.50;98944.28;5372020;32;44237;-66
2023/03/14 11:22:25;;;;;;;;;;;;;;;21.82;26.23;98950.97;5366906;32;35033;-67
2023/03/14 11:25:49;;;;;;;;;;;;;;;23.09;24.53;98918.13;5359197;32;34882;-74
2023/03/14 11:28:56;;;;;;;;;;;;;;;23.77;23.64;98936.16;5336086;32;34878;-66
2023/03/14 11:31:59;;;;;;;;;;;;;;;22.85;24.95;98908.31;5336412;32;34674;-67
2023/03/14 11:35:02;;;;;;;;;;;;;;;22.50;25.32;98897.06;5367026;32;33970;-75
2023/03/14 11:38:20;;;;;;;;;;;;;;;22.18;26.07;98906.03;5340221;32;35214;-69
2023/03/14 11:41:27;;;;;;;;;;;;;;;22.05;26.18;98894.97;5321082;32;34683;-67
2023/03/14 11:44:34;;;;;;;;;;;;;;;21.88;26.66;98902.16;5371937;32;34586;-74
2023/03/14 11:47:39;;;;;;;;;;;;;;;22.28;26.10;98903.97;5364724;32;44468;-70
2023/03/14 11:50:44;;;;;;;;;;;;;;;22.14;25.94;98902.84;5371862;32;36664;-64
2023/03/14 11:53:54;;;;;;;;;;;;;;;23.09;25.08;98881.44;5340436;32;34602;-66
2023/03/14 11:57:15;;;;;;;;;;;;;;;23.88;23.93;98881.22;5368899;32;34391;-72
2023/03/14 12:00:19;;;;;;;;;;;;;;;22.58;25.34;98897.03;5371389;32;44952;-71
2023/03/14 12:03:24;;;;;;;;;;;;;;;22.07;26.16;98871.56;5361373;32;36447;-71
2023/03/14 12:06:39;;;;;;;;;;;;;;;22.30;25.82;98858.34;5340750;32;34715;-66
2023/03/14 12:09:41;;;;;;;;;;;;;;;22.32;25.74;98872.37;5348394;32;44448;-65
2023/03/14 12:12:43;;;;;;;;;;;;;;;22.92;24.86;98850.37;5375711;32;34811;-68
2023/03/14 12:15:48;;;;;;;;;;;;;;;22.21;25.46;98870.03;5344100;32;36033;-69
2023/03/14 12:18:50;;;;;;;;;;;;;;;22.77;24.97;98846.75;5366624;32;34688;-64
2023/03/14 12:22:19;;;;;;;;;;;;;;;22.34;25.05;98855.13;5362764;32;34750;-64
2023/03/14 12:25:26;;;;;;;;;;;;;;;22.54;25.13;98844.88;5349764;32;31820;-70
2023/03/14 12:28:31;;;;;;;;;;;;;;;22.52;25.18;98851.38;5364829;32;36862;-78
2023/03/14 12:31:37;;;;;;;;;;;;;;;22.54;25.12;98838.66;5349269;32;34880;-60
2023/03/14 12:34:40;;;;;;;;;;;;;;;22.59;25.17;98837.13;5368293;32;44339;-83
2023/03/14 12:37:44;;;;;;;;;;;;;;;22.40;25.73;98827.66;5372028;32;36343;-64
2023/03/14 12:41:02;;;;;;;;;;;;;;;22.62;25.46;98834.13;5349010;32;34777;-70
2023/03/14 12:44:22;;;;;;;;;;;;;;;24.16;23.77;98841.22;5379830;32;36468;-66
2023/03/14 12:47:31;;;;;;;;;;;;;;;25.50;22.06;98827.31;5366845;32;34841;-73
2023/03/14 12:50:38;;;;;;;;;;;;;;;24.30;23.30;98825.09;5366753;32;33506;-72
2023/03/14 12:53:49;;;;;;;;;;;;;;;22.80;24.90;98815.12;5362688;32;45199;-73
2023/03/14 12:56:57;;;;;;;;;;;;;;;22.27;25.61;98813.16;5359887;32;35192;-74
2023/03/14 12:59:59;;;;;;;;;;;;;;;21.83;26.34;98801.06;5375695;32;34725;-71
2023/03/14 13:03:13;;;;;;;;;;;;;;;21.59;26.86;98812.63;5371936;32;34701;-71
2023/03/14 13:06:35;;;;;;;;;;;;;;;21.48;27.23;98802.25;5345337;32;44467;-67
2023/03/14 13:09:49;;;;;;;;;;;;;;;21.13;27.86;98781.19;5375213;32;34828;-77
2023/03/14 13:13:07;;;;;;;;;;;;;;;21.03;27.82;98798.19;5360911;32;36169;-71
2023/03/14 13:16:11;;;;;;;;;;;;;;;20.93;27.77;98810.03;5367396;32;45292;-73
2023/03/14 13:19:17;;;;;;;;;;;;;;;20.82;28.12;98789.84;5342176;32;36186;-71
2023/03/14 13:22:24;;;;;;;;;;;;;;;20.87;28.05;98794.69;5346962;32;34706;-66
2023/03/14 13:25:32;;;;;;;;;;;;;;;20.89;28.05;98798.84;5377776;32;36000;-73
2023/03/14 13:28:36;;;;;;;;;;;;;;;20.87;27.95;98800.03;5354810;32;34610;-72
2023/03/14 13:31:39;;;;;;;;;;;;;;;21.12;27.62;98798.19;5379827;32;44526;-73
2023/03/14 13:34:41;;;;;;;;;;;;;;;20.86;27.89;98814.34;5341914;32;35352;-69
2023/03/14 13:37:43;;;;;;;;;;;;;;;20.92;27.95;98819.87;5371427;32;35168;-72
2023/03/14 13:40:46;;;;;;;;;;;;;;;20.90;28.04;98810.38;5361340;32;34802;-67
2023/03/14 13:43:48;;;;;;;;;;;;;;;21.07;28.33;98814.75;5361321;32;34656;-63
2023/03/14 13:46:50;;;;;;;;;;;;;;;20.94;29.59;98820.56;5360505;32;36083;-71
2023/03/14 13:49:52;;;;;;;;;;;;;;;21.46;28.70;98820.31;5362454;32;35447;-75
2023/03/14 13:52:55;;;;;;;;;;;;;;;21.44;28.31;98808.94;5362364;32;34769;-88
2023/03/14 13:56:01;;;;;;;;;;;;;;;21.47;28.18;98808.62;5344507;32;34779;-66
2023/03/14 13:59:03;;;;;;;;;;;;;;;21.45;28.19;98807.97;5367884;32;37311;-74
2023/03/14 14:02:15;;;;;;;;;;;;;;;21.43;28.21;98809.09;5349700;32;36414;-66
2023/03/14 14:05:19;;;;;;;;;;;;;;;21.72;27.57;98805.94;5346145;32;37025;-65
2023/03/14 14:08:21;;;;;;;;;;;;;;;21.81;27.29;98811.06;5370986;32;36551;-74
2023/03/14 14:11:37;;;;;;;;;;;;;;;21.59;27.50;98809.94;5356390;32;36138;-66
2023/03/14 14:14:52;;;;;;;;;;;;;;;21.48;27.59;98806.78;5366757;32;34740;-66
2023/03/14 14:18:04;;;;;;;;;;;;;;;21.97;26.70;98799.53;5367896;32;34743;-67
2023/03/14 14:21:06;;;;;;;;;;;;;;;21.65;27.14;98794.25;5337874;32;35111;-71
2023/03/14 14:24:12;;;;;;;;;;;;;;;21.99;26.32;98786.81;5358390;32;45244;-71
2023/03/14 14:27:16;;;;;;;;;;;;;;;22.08;26.17;98796.47;5342055;32;35595;-73
2023/03/14 14:30:18;;;;;;;;;;;;;;;22.07;26.03;98789.44;5364800;32;34222;-73
2023/03/14 14:33:23;;;;;;;;;;;;;;;22.09;26.18;98795.53;5360266;32;36051;-70
2023/03/14 14:36:31;;;;;;;;;;;;;;;21.94;26.50;98799.84;5358023;32;36394;-71
2023/03/14 14:39:33;;;;;;;;;;;;;;;21.56;26.99;98794.22;5371298;32;36547;-67
2023/03/14 14:42:35;;;;;;;;;;;;;;;21.61;27.15;98791.88;5350507;32;36417;-77
2023/03/14 14:45:37;;;;;;;;;;;;;;;21.63;27.16;98789.87;5381234;32;35771;-77
2023/03/14 14:48:39;;;;;;;;;;;;;;;21.65;27.20;98794.25;5347650;32;46585;-65
2023/03/14 14:51:42;;;;;;;;;;;;;;;21.32;27.75;98796.94;5368523;32;34769;-72
2023/03/14 14:54:46;;;;;;;;;;;;;;;21.31;27.87;98780.03;5356013;32;36081;-67
2023/03/14 14:57:54;;;;;;;;;;;;;;;21.10;28.32;98785.84;5380841;32;35216;-67
2023/03/14 15:00:57;;;;;;;;;;;;;;;21.39;27.97;98794.44;5358229;32;34745;-75
2023/03/14 15:03:59;;;;;;;;;;;;;;;21.59;27.57;98772.53;5346588;32;35041;-74
2023/03/14 15:07:01;;;;;;;;;;;;;;;20.99;28.89;98782.66;5363871;32;36786;-73
2023/03/14 15:10:03;;;;;;;;;;;;;;;21.15;28.91;98777.34;5359820;32;34610;-73
2023/03/14 15:13:05;;;;;;;;;;;;;;;21.48;28.58;98793.41;5364880;32;34877;-72
2023/03/14 15:16:11;;;;;;;;;;;;;;;20.96;29.08;98783.84;5371682;32;36141;-71
2023/03/14 15:19:19;;;;;;;;;;;;;;;20.60;29.73;98809.94;5340410;32;47565;-73
2023/03/14 15:22:25;;;;;;;;;;;;;;;20.87;29.06;98795.53;5359764;32;36468;-72
2023/03/14 15:25:27;;;;;;;;;;;;;;;20.26;29.81;98817.97;5348817;32;36065;-72
2023/03/14 15:28:49;;;;;;;;;;;;;;;20.11;30.22;98825.72;5366399;32;35183;-73
2023/03/14 15:31:51;;;;;;;;;;;;;;;20.05;30.20;98820.19;5348094;32;34612;-72
2023/03/14 15:34:57;;;;;;;;;;;;;;;20.40;29.53;98830.69;5346183;32;34918;-71
2023/03/14 15:37:59;;;;;;;;;;;;;;;20.10;29.66;98813.41;5356148;32;35509;-73
2023/03/14 15:41:01;;;;;;;;;;;;;;;20.14;29.47;98830.72;5339886;32;35593;-70
2023/03/14 15:44:03;;;;;;;;;;;;;;;20.21;29.32;98834.44;5363780;32;35425;-72
2023/03/14 15:47:05;;;;;;;;;;;;;;;20.41;29.04;98835.03;5362189;32;36206;-72
2023/03/14 15:50:09;;;;;;;;;;;;;;;20.22;29.30;98840.59;5361984;32;36008;-73
2023/03/14 15:53:11;;;;;;;;;;;;;;;20.32;29.09;98849.34;5344336;32;44624;-71
2023/03/14 15:56:17;;;;;;;;;;;;;;;20.17;29.68;98873.09;5341849;32;36082;-72
2023/03/14 15:59:19;;;;;;;;;;;;;;;19.55;35.56;98896.25;5363339;32;36095;-72